sensor_id;sensor_type;location;lat;lon;timestamp;pressure;altitude;pressure_sealevel;temperature;humidity
57086;BME280;42964;42.910;23.792;2023-03-20T00:02:25;97976.81;;;4.29;76.32
57086;BME280;42964;42.910;23.792;2023-03-20T00:07:24;97956.19;;;4.26;76.38
57086;BME280;42964;42.910;23.792;2023-03-20T00:12:24;97939.44;;;4.09;76.46
57086;BME280;42964;42.910;23.792;2023-03-20T00:17:24;97953.41;;;4.19;76.40
57086;BME280;42964;42.910;23.792;2023-03-20T00:22:23;97940.50;;;4.17;76.24
57086;BME280;42964;42.910;23.792;2023-03-20T00:27:22;97944.63;;;4.11;76.75
57086;BME280;42964;42.910;23.792;2023-03-20T00:32:21;97866.25;;;3.61;76.33
57086;BME280;42964;42.910;23.792;2023-03-20T00:37:20;97932.28;;;3.97;76.97
57086;BME280;42964;42.910;23.792;2023-03-20T00:42:20;97935.66;;;3.96;76.87
57086;BME280;42964;42.910;23.792;2023-03-20T00:47:23;97927.66;;;3.85;77.22
57086;BME280;42964;42.910;23.792;2023-03-20T00:52:23;97927.59;;;3.82;77.32
57086;BME280;42964;42.910;23.792;2023-03-20T00:57:35;97907.72;;;3.75;77.56
57086;BME280;42964;42.910;23.792;2023-03-20T01:02:36;97917.09;;;3.75;77.71
57086;BME280;42964;42.910;23.792;2023-03-20T01:07:35;97904.78;;;3.63;77.49
57086;BME280;42964;42.910;23.792;2023-03-20T01:12:34;97904.44;;;3.51;77.81
57086;BME280;42964;42.910;23.792;2023-03-20T01:17:33;97908.44;;;3.41;77.97
57086;BME280;42964;42.910;23.792;2023-03-20T01:22:32;97901.97;;;3.25;78.41
57086;BME280;42964;42.910;23.792;2023-03-20T01:27:31;97902.75;;;3.22;78.49
57086;BME280;42964;42.910;23.792;2023-03-20T01:32:30;97891.56;;;3.20;78.10
57086;BME280;42964;42.910;23.792;2023-03-20T01:37:29;97886.28;;;3.16;78.85
57086;BME280;42964;42.910;23.792;2023-03-20T01:42:28;97895.56;;;3.11;79.53
57086;BME280;42964;42.910;23.792;2023-03-20T01:47:27;97887.78;;;3.08;79.40
57086;BME280;42964;42.910;23.792;2023-03-20T01:52:26;97898.03;;;3.08;79.16
57086;BME280;42964;42.910;23.792;2023-03-20T01:57:26;97900.53;;;3.06;79.27
57086;BME280;42964;42.910;23.792;2023-03-20T02:02:28;97899.31;;;2.93;79.54
57086;BME280;42964;42.910;23.792;2023-03-20T02:07:28;97883.50;;;2.81;79.82
57086;BME280;42964;42.910;23.792;2023-03-20T02:12:28;97907.72;;;2.89;79.65
57086;BME280;42964;42.910;23.792;2023-03-20T02:17:27;97903.44;;;2.90;80.06
57086;BME280;42964;42.910;23.792;2023-03-20T02:43:45;97858.84;;;2.57;79.99
57086;BME280;42964;42.910;23.792;2023-03-20T03:04:22;97885.53;;;2.64;80.09
57086;BME280;42964;42.910;23.792;2023-03-20T03:09:26;97888.94;;;2.63;79.50
57086;BME280;42964;42.910;23.792;2023-03-20T03:14:41;97884.47;;;2.57;80.29
57086;BME280;42964;42.910;23.792;2023-03-20T03:19:48;97881.88;;;2.56;79.86
57086;BME280;42964;42.910;23.792;2023-03-20T03:24:50;97882.78;;;2.58;80.01
57086;BME280;42964;42.910;23.792;2023-03-20T03:29:55;97879.09;;;2.50;80.21
57086;BME280;42964;42.910;23.792;2023-03-20T03:34:55;97875.69;;;2.49;79.88
57086;BME280;42964;42.910;23.792;2023-03-20T03:40:06;97869.72;;;2.50;79.66
57086;BME280;42964;42.910;23.792;2023-03-20T03:45:19;97874.44;;;2.38;80.42
57086;BME280;42964;42.910;23.792;2023-03-20T03:50:38;97874.31;;;2.33;80.43
57086;BME280;42964;42.910;23.792;2023-03-20T03:55:43;97865.59;;;2.28;80.40
57086;BME280;42964;42.910;23.792;2023-03-20T04:00:45;97872.44;;;2.29;80.56
57086;BME280;42964;42.910;23.792;2023-03-20T04:05:46;97882.69;;;2.29;80.86
57086;BME280;42964;42.910;23.792;2023-03-20T04:10:45;97883.25;;;2.21;80.72
57086;BME280;42964;42.910;23.792;2023-03-20T04:15:44;97873.91;;;2.21;81.17
57086;BME280;42964;42.910;23.792;2023-03-20T04:20:44;97873.63;;;2.13;81.31
57086;BME280;42964;42.910;23.792;2023-03-20T04:25:43;97818.50;;;1.73;81.42
57086;BME280;42964;42.910;23.792;2023-03-20T04:30:42;97871.41;;;1.99;82.00
57086;BME280;42964;42.910;23.792;2023-03-20T04:35:45;97867.22;;;2.01;82.02
57086;BME280;42964;42.910;23.792;2023-03-20T04:40:45;97864.75;;;2.04;81.51
57086;BME280;42964;42.910;23.792;2023-03-20T04:45:44;97871.78;;;2.09;81.52
57086;BME280;42964;42.910;23.792;2023-03-20T04:50:43;97871.97;;;2.15;81.93
57086;BME280;42964;42.910;23.792;2023-03-20T04:55:45;97874.16;;;2.29;81.40
57086;BME280;42964;42.910;23.792;2023-03-20T05:00:45;97885.34;;;2.32;81.80
57086;BME280;42964;42.910;23.792;2023-03-20T05:05:44;97887.47;;;2.44;81.75
57086;BME280;42964;42.910;23.792;2023-03-20T05:10:43;97875.56;;;2.46;81.61
57086;BME280;42964;42.910;23.792;2023-03-20T05:15:43;97889.97;;;2.70;81.74
57086;BME280;42964;42.910;23.792;2023-03-20T05:20:42;97890.47;;;2.85;81.63
57086;BME280;42964;42.910;23.792;2023-03-20T05:25:41;97892.78;;;3.05;81.66
57086;BME280;42964;42.910;23.792;2023-03-20T05:30:40;97900.09;;;3.19;80.91
57086;BME280;42964;42.910;23.792;2023-03-20T05:35:39;97895.47;;;3.36;81.59
57086;BME280;42964;42.910;23.792;2023-03-20T05:40:38;97888.06;;;3.47;80.93
57086;BME280;42964;42.910;23.792;2023-03-20T05:45:41;97917.09;;;3.75;80.51
57086;BME280;42964;42.910;23.792;2023-03-20T05:50:40;97902.94;;;3.89;80.54
57086;BME280;42964;42.910;23.792;2023-03-20T05:55:40;97891.19;;;3.97;80.34
57086;BME280;42964;42.910;23.792;2023-03-20T06:00:39;97911.75;;;4.31;79.40
57086;BME280;42964;42.910;23.792;2023-03-20T06:05:38;97910.78;;;4.59;78.46
57086;BME280;42964;42.910;23.792;2023-03-20T06:10:37;97915.44;;;4.74;77.12
57086;BME280;42964;42.910;23.792;2023-03-20T06:15:36;97855.25;;;4.65;76.16
57086;BME280;42964;42.910;23.792;2023-03-20T06:20:35;97941.44;;;5.21;75.44
57086;BME280;42964;42.910;23.792;2023-03-20T06:25:34;97908.28;;;5.33;75.29
57086;BME280;42964;42.910;23.792;2023-03-20T06:30:33;97914.72;;;5.53;74.86
57086;BME280;42964;42.910;23.792;2023-03-20T06:35:33;97924.63;;;5.76;74.64
57086;BME280;42964;42.910;23.792;2023-03-20T06:40:32;97917.50;;;6.05;74.78
57086;BME280;42964;42.910;23.792;2023-03-20T06:45:31;97919.06;;;6.43;73.89
57086;BME280;42964;42.910;23.792;2023-03-20T06:50:30;97914.44;;;6.75;72.64
57086;BME280;42964;42.910;23.792;2023-03-20T06:55:29;97902.88;;;7.04;72.19
57086;BME280;42964;42.910;23.792;2023-03-20T07:00:28;97903.31;;;7.34;69.61
57086;BME280;42964;42.910;23.792;2023-03-20T07:05:27;97890.84;;;7.66;68.95
57086;BME280;42964;42.910;23.792;2023-03-20T07:10:27;97864.44;;;7.88;67.74
57086;BME280;42964;42.910;23.792;2023-03-20T07:15:26;97881.31;;;8.38;64.90
57086;BME280;42964;42.910;23.792;2023-03-20T07:20:25;97880.66;;;8.58;64.18
57086;BME280;42964;42.910;23.792;2023-03-20T07:25:24;97882.72;;;9.00;63.39
57086;BME280;42964;42.910;23.792;2023-03-20T07:30:23;97875.94;;;9.18;62.80
57086;BME280;42964;42.910;23.792;2023-03-20T07:35:22;97876.94;;;9.35;62.36
57086;BME280;42964;42.910;23.792;2023-03-20T07:40:21;97877.03;;;9.58;62.38
57086;BME280;42964;42.910;23.792;2023-03-20T07:45:20;97851.09;;;9.44;62.74
57086;BME280;42964;42.910;23.792;2023-03-20T07:50:19;97853.78;;;9.69;63.23
57086;BME280;42964;42.910;23.792;2023-03-20T07:55:18;97865.16;;;10.03;63.80
57086;BME280;42964;42.910;23.792;2023-03-20T08:00:18;97866.97;;;10.43;61.26
57086;BME280;42964;42.910;23.792;2023-03-20T08:05:17;97867.81;;;10.84;60.48
57086;BME280;42964;42.910;23.792;2023-03-20T08:10:16;97863.50;;;11.23;58.37
57086;BME280;42964;42.910;23.792;2023-03-20T08:15:15;97860.03;;;11.21;57.36
57086;BME280;42964;42.910;23.792;2023-03-20T08:20:15;97873.75;;;11.66;57.62
57086;BME280;42964;42.910;23.792;2023-03-20T08:25:15;97867.56;;;11.98;57.63
57086;BME280;42964;42.910;23.792;2023-03-20T08:30:15;97869.13;;;12.38;55.60
57086;BME280;42964;42.910;23.792;2023-03-20T08:35:14;97874.84;;;12.86;54.38
57086;BME280;42964;42.910;23.792;2023-03-20T08:40:13;97876.34;;;13.14;52.92
57086;BME280;42964;42.910;23.792;2023-03-20T08:45:12;97827.69;;;13.17;51.19
57086;BME280;42964;42.910;23.792;2023-03-20T08:50:11;97853.28;;;13.63;49.82
57086;BME280;42964;42.910;23.792;2023-03-20T08:55:11;97859.81;;;13.97;48.65
57086;BME280;42964;42.910;23.792;2023-03-20T09:00:12;97857.47;;;14.39;47.17
57086;BME280;42964;42.910;23.792;2023-03-20T09:05:12;97838.63;;;14.78;46.10
57086;BME280;42964;42.910;23.792;2023-03-20T09:10:11;97843.75;;;14.84;43.69
57086;BME280;42964;42.910;23.792;2023-03-20T09:15:10;97829.38;;;15.10;42.98
57086;BME280;42964;42.910;23.792;2023-03-20T09:20:09;97824.63;;;15.32;42.44
57086;BME280;42964;42.910;23.792;2023-03-20T09:25:08;97823.84;;;15.72;43.03
57086;BME280;42964;42.910;23.792;2023-03-20T09:30:09;97817.19;;;15.99;39.42
57086;BME280;42964;42.910;23.792;2023-03-20T09:35:08;97813.94;;;16.28;39.24
57086;BME280;42964;42.910;23.792;2023-03-20T09:40:11;97790.59;;;16.55;38.40
57086;BME280;42964;42.910;23.792;2023-03-20T09:56:01;97774.94;;;17.22;36.71
57086;BME280;42964;42.910;23.792;2023-03-20T10:01:01;97753.47;;;17.39;36.06
57086;BME280;42964;42.910;23.792;2023-03-20T10:06:03;97768.22;;;17.72;35.98
57086;BME280;42964;42.910;23.792;2023-03-20T10:22:14;97738.41;;;18.33;33.23
57086;BME280;42964;42.910;23.792;2023-03-20T10:27:38;97736.38;;;18.41;30.00
57086;BME280;42964;42.910;23.792;2023-03-20T10:32:46;97723.78;;;18.77;28.72
57086;BME280;42964;42.910;23.792;2023-03-20T10:42:47;97705.41;;;19.26;25.66
57086;BME280;42964;42.910;23.792;2023-03-20T10:47:50;97693.53;;;19.39;26.11
57086;BME280;42964;42.910;23.792;2023-03-20T10:52:52;97681.88;;;19.70;26.51
57086;BME280;42964;42.910;23.792;2023-03-20T10:57:58;97687.91;;;20.16;25.95
57086;BME280;42964;42.910;23.792;2023-03-20T11:02:59;97688.53;;;20.45;24.19
57086;BME280;42964;42.910;23.792;2023-03-20T11:08:01;97682.22;;;20.69;24.13
57086;BME280;42964;42.910;23.792;2023-03-20T11:18:17;97645.25;;;21.10;22.35
57086;BME280;42964;42.910;23.792;2023-03-20T11:23:19;97658.06;;;21.39;21.76
57086;BME280;42964;42.910;23.792;2023-03-20T11:28:24;97648.31;;;21.60;22.20
57086;BME280;42964;42.910;23.792;2023-03-20T11:33:25;97646.69;;;21.74;22.28
57086;BME280;42964;42.910;23.792;2023-03-20T11:38:28;97647.44;;;21.78;22.06
57086;BME280;42964;42.910;23.792;2023-03-20T11:43:36;97641.34;;;21.76;21.69
57086;BME280;42964;42.910;23.792;2023-03-20T11:48:41;97621.56;;;21.66;21.78
57086;BME280;42964;42.910;23.792;2023-03-20T11:53:41;97617.88;;;21.70;21.26
57086;BME280;42964;42.910;23.792;2023-03-20T11:59:21;97616.94;;;21.52;21.90
57086;BME280;42964;42.910;23.792;2023-03-20T12:04:34;97603.84;;;21.50;21.01
57086;BME280;42964;42.910;23.792;2023-03-20T12:20:44;97592.69;;;21.99;21.03
57086;BME280;42964;42.910;23.792;2023-03-20T12:31:04;97578.63;;;22.51;21.37
57086;BME280;42964;42.910;23.792;2023-03-20T12:36:12;97576.16;;;22.30;21.30
57086;BME280;42964;42.910;23.792;2023-03-20T12:41:21;97534.28;;;22.23;21.17
57086;BME280;42964;42.910;23.792;2023-03-20T12:46:36;97570.69;;;22.51;20.58
57086;BME280;42964;42.910;23.792;2023-03-20T13:07:20;97546.97;;;22.32;21.84
57086;BME280;42964;42.910;23.792;2023-03-20T13:18:14;97534.31;;;22.04;21.30
57086;BME280;42964;42.910;23.792;2023-03-20T13:23:01;97531.97;;;21.97;21.02
57086;BME280;42964;42.910;23.792;2023-03-20T13:28:19;97531.59;;;21.88;21.23
57086;BME280;42964;42.910;23.792;2023-03-20T13:38:51;97516.13;;;21.97;21.37
57086;BME280;42964;42.910;23.792;2023-03-20T13:44:02;97512.56;;;21.99;21.28
57086;BME280;42964;42.910;23.792;2023-03-20T13:49:15;97505.97;;;22.07;21.79
57086;BME280;42964;42.910;23.792;2023-03-20T14:05:03;97426.47;;;21.94;20.10
57086;BME280;42964;42.910;23.792;2023-03-20T14:15:20;97467.66;;;22.32;20.88
57086;BME280;42964;42.910;23.792;2023-03-20T14:20:31;97463.38;;;22.13;20.97
57086;BME280;42964;42.910;23.792;2023-03-20T14:25:38;97442.47;;;21.91;21.48
57086;BME280;42964;42.910;23.792;2023-03-20T14:30:47;97474.09;;;22.10;22.52
57086;BME280;42964;42.910;23.792;2023-03-20T14:35:49;97472.94;;;21.81;22.46
57086;BME280;42964;42.910;23.792;2023-03-20T14:41:07;97471.38;;;21.60;23.04
57086;BME280;42964;42.910;23.792;2023-03-20T14:51:40;97341.88;;;20.55;23.92
57086;BME280;42964;42.910;23.792;2023-03-20T14:56:41;97456.19;;;21.09;24.68
57086;BME280;42964;42.910;23.792;2023-03-20T15:07:13;97460.88;;;20.85;24.97
57086;BME280;42964;42.910;23.792;2023-03-20T15:12:15;97467.06;;;20.65;25.87
57086;BME280;42964;42.910;23.792;2023-03-20T15:17:27;97475.25;;;20.59;25.90
57086;BME280;42964;42.910;23.792;2023-03-20T15:22:31;97465.41;;;20.44;25.90
57086;BME280;42964;42.910;23.792;2023-03-20T15:27:31;97486.44;;;20.45;26.19
57086;BME280;42964;42.910;23.792;2023-03-20T15:32:32;97484.59;;;20.27;25.62
57086;BME280;42964;42.910;23.792;2023-03-20T15:37:33;97473.84;;;20.11;26.29
57086;BME280;42964;42.910;23.792;2023-03-20T15:42:32;97486.25;;;20.09;26.72
57086;BME280;42964;42.910;23.792;2023-03-20T15:47:33;97449.84;;;19.78;26.79
57086;BME280;42964;42.910;23.792;2023-03-20T15:52:41;97477.69;;;19.83;26.75
57086;BME280;42964;42.910;23.792;2023-03-20T15:57:42;97489.66;;;19.91;27.03
57086;BME280;42964;42.910;23.792;2023-03-20T16:02:44;97491.03;;;19.58;27.73
57086;BME280;42964;42.910;23.792;2023-03-20T16:07:44;97494.72;;;19.32;27.62
57086;BME280;42964;42.910;23.792;2023-03-20T16:12:48;97503.38;;;19.12;27.20
57086;BME280;42964;42.910;23.792;2023-03-20T16:17:51;97507.50;;;18.74;26.98
57086;BME280;42964;42.910;23.792;2023-03-20T16:22:53;97511.63;;;18.56;27.40
57086;BME280;42964;42.910;23.792;2023-03-20T16:27:53;97459.59;;;18.18;27.86
57086;BME280;42964;42.910;23.792;2023-03-20T16:32:57;97519.72;;;18.26;28.83
57086;BME280;42964;42.910;23.792;2023-03-20T16:38:00;97523.75;;;18.11;30.14
57086;BME280;42964;42.910;23.792;2023-03-20T16:43:13;97487.88;;;17.59;30.88
57086;BME280;42964;42.910;23.792;2023-03-20T16:53:14;97529.88;;;17.30;32.48
57086;BME280;42964;42.910;23.792;2023-03-20T16:58:26;97547.34;;;17.03;33.22
57086;BME280;42964;42.910;23.792;2023-03-20T17:03:33;97548.13;;;16.76;33.25
57086;BME280;42964;42.910;23.792;2023-03-20T17:08:43;97556.53;;;16.56;33.63
57086;BME280;42964;42.910;23.792;2023-03-20T17:13:43;97515.13;;;16.07;34.31
57086;BME280;42964;42.910;23.792;2023-03-20T17:18:44;97549.88;;;16.13;34.54
57086;BME280;42964;42.910;23.792;2023-03-20T17:23:43;97546.88;;;15.94;35.13
57086;BME280;42964;42.910;23.792;2023-03-20T17:28:43;97539.50;;;15.74;35.49
57086;BME280;42964;42.910;23.792;2023-03-20T17:33:42;97554.53;;;15.65;36.28
57086;BME280;42964;42.910;23.792;2023-03-20T17:38:41;97515.41;;;15.25;36.51
57086;BME280;42964;42.910;23.792;2023-03-20T17:43:40;97550.47;;;15.16;36.64
57086;BME280;42964;42.910;23.792;2023-03-20T17:48:40;97548.22;;;14.99;36.96
57086;BME280;42964;42.910;23.792;2023-03-20T17:53:39;97527.31;;;14.57;37.31
57086;BME280;42964;42.910;23.792;2023-03-20T17:58:39;97530.47;;;14.30;37.82
57086;BME280;42964;42.910;23.792;2023-03-20T18:03:39;97553.06;;;14.32;37.56
57086;BME280;42964;42.910;23.792;2023-03-20T18:08:38;97528.19;;;14.13;37.62
57086;BME280;42964;42.910;23.792;2023-03-20T18:13:37;97555.28;;;14.06;38.26
57086;BME280;42964;42.910;23.792;2023-03-20T18:18:36;97562.69;;;13.81;38.67
57086;BME280;42964;42.910;23.792;2023-03-20T18:23:35;97570.66;;;13.73;39.36
57086;BME280;42964;42.910;23.792;2023-03-20T18:28:33;97577.00;;;13.53;39.59
57086;BME280;42964;42.910;23.792;2023-03-20T18:33:32;97577.31;;;13.32;40.04
57086;BME280;42964;42.910;23.792;2023-03-20T18:38:31;97570.53;;;13.22;39.77
57086;BME280;42964;42.910;23.792;2023-03-20T18:43:30;97582.78;;;13.15;40.35
57086;BME280;42964;42.910;23.792;2023-03-20T18:48:29;97587.16;;;13.13;40.85
57086;BME280;42964;42.910;23.792;2023-03-20T18:53:28;97593.38;;;13.01;40.77
57086;BME280;42964;42.910;23.792;2023-03-20T18:58:28;97589.09;;;12.97;40.88
57086;BME280;42964;42.910;23.792;2023-03-20T19:03:27;97581.50;;;12.82;41.85
57086;BME280;42964;42.910;23.792;2023-03-20T19:08:27;97597.22;;;12.72;42.76
57086;BME280;42964;42.910;23.792;2023-03-20T19:13:26;97595.66;;;12.59;43.76
57086;BME280;42964;42.910;23.792;2023-03-20T19:18:25;97589.63;;;12.56;43.53
57086;BME280;42964;42.910;23.792;2023-03-20T19:23:25;97589.63;;;12.56;43.35
57086;BME280;42964;42.910;23.792;2023-03-20T19:28:28;97565.41;;;12.47;43.07
57086;BME280;42964;42.910;23.792;2023-03-20T19:33:30;97593.00;;;12.62;44.13
57086;BME280;42964;42.910;23.792;2023-03-20T19:38:29;97598.19;;;12.64;43.87
57086;BME280;42964;42.910;23.792;2023-03-20T19:43:29;97557.75;;;12.34;45.08
57086;BME280;42964;42.910;23.792;2023-03-20T19:48:28;97592.25;;;12.54;45.06
57086;BME280;42964;42.910;23.792;2023-03-20T19:53:27;97540.53;;;12.20;44.71
57086;BME280;42964;42.910;23.792;2023-03-20T19:58:27;97591.38;;;12.54;44.74
57086;BME280;42964;42.910;23.792;2023-03-20T20:03:26;97592.19;;;12.57;44.75
57086;BME280;42964;42.910;23.792;2023-03-20T20:08:25;97600.00;;;12.59;45.00
57086;BME280;42964;42.910;23.792;2023-03-20T20:13:29;97587.00;;;12.57;45.02
57086;BME280;42964;42.910;23.792;2023-03-20T20:18:28;97568.94;;;12.43;44.90
57086;BME280;42964;42.910;23.792;2023-03-20T20:23:27;97580.03;;;12.58;45.12
57086;BME280;42964;42.910;23.792;2023-03-20T20:28:26;97591.38;;;12.54;45.45
57086;BME280;42964;42.910;23.792;2023-03-20T20:33:25;97541.34;;;12.25;45.24
57086;BME280;42964;42.910;23.792;2023-03-20T20:38:24;97587.09;;;12.48;45.85
57086;BME280;42964;42.910;23.792;2023-03-20T20:43:24;97580.22;;;12.41;45.91
57086;BME280;42964;42.910;23.792;2023-03-20T20:48:23;97585.38;;;12.47;46.05
57086;BME280;42964;42.910;23.792;2023-03-20T20:53:22;97590.63;;;12.44;46.66
57086;BME280;42964;42.910;23.792;2023-03-20T20:58:21;97599.31;;;12.43;46.85
57086;BME280;42964;42.910;23.792;2023-03-20T21:03:20;97582.03;;;12.36;47.12
57086;BME280;42964;42.910;23.792;2023-03-20T21:08:19;97528.63;;;11.98;46.86
57086;BME280;42964;42.910;23.792;2023-03-20T21:13:18;97587.34;;;12.23;46.71
57086;BME280;42964;42.910;23.792;2023-03-20T21:18:17;97584.84;;;12.13;46.79
57086;BME280;42964;42.910;23.792;2023-03-20T21:23:16;97583.13;;;12.10;46.81
57086;BME280;42964;42.910;23.792;2023-03-20T21:28:15;97570.22;;;12.02;46.64
57086;BME280;42964;42.910;23.792;2023-03-20T21:33:14;97589.22;;;12.06;47.23
57086;BME280;42964;42.910;23.792;2023-03-20T21:38:14;97581.47;;;12.01;47.49
57086;BME280;42964;42.910;23.792;2023-03-20T21:43:14;97573.75;;;11.95;48.78
57086;BME280;42964;42.910;23.792;2023-03-20T21:48:14;97581.53;;;11.94;48.91
57086;BME280;42964;42.910;23.792;2023-03-20T21:53:13;97566.97;;;11.77;49.19
57086;BME280;42964;42.910;23.792;2023-03-20T21:58:13;97574.72;;;11.83;49.25
57086;BME280;42964;42.910;23.792;2023-03-20T22:03:12;97568.75;;;11.72;49.54
57086;BME280;42964;42.910;23.792;2023-03-20T22:08:11;97575.72;;;11.65;50.32
57086;BME280;42964;42.910;23.792;2023-03-20T22:13:11;97574.06;;;11.57;49.30
57086;BME280;42964;42.910;23.792;2023-03-20T22:18:10;97569.75;;;11.56;49.78
57086;BME280;42964;42.910;23.792;2023-03-20T22:23:09;97544.72;;;11.42;49.92
57086;BME280;42964;42.910;23.792;2023-03-20T22:28:08;97564.56;;;11.57;50.09
57086;BME280;42964;42.910;23.792;2023-03-20T22:33:07;97542.94;;;11.48;50.79
57086;BME280;42964;42.910;23.792;2023-03-20T22:38:06;97556.78;;;11.53;52.10
57086;BME280;42964;42.910;23.792;2023-03-20T22:43:05;97565.44;;;11.52;51.08
57086;BME280;42964;42.910;23.792;2023-03-20T22:48:04;97565.41;;;11.55;51.56
57086;BME280;42964;42.910;23.792;2023-03-20T22:53:03;97561.06;;;11.60;50.96
57086;BME280;42964;42.910;23.792;2023-03-20T22:58:02;97558.47;;;11.57;51.58
57086;BME280;42964;42.910;23.792;2023-03-20T23:03:03;97555.00;;;11.58;51.24
57086;BME280;42964;42.910;23.792;2023-03-20T23:08:03;97553.34;;;11.51;52.04
57086;BME280;42964;42.910;23.792;2023-03-20T23:13:03;97563.75;;;11.46;52.55
57086;BME280;42964;42.910;23.792;2023-03-20T23:18:02;97560.31;;;11.44;52.70
57086;BME280;42964;42.910;23.792;2023-03-20T23:23:01;97554.34;;;11.30;53.32
57086;BME280;42964;42.910;23.792;2023-03-20T23:28:00;97552.66;;;11.25;52.86
57086;BME280;42964;42.910;23.792;2023-03-20T23:32:59;97544.03;;;11.19;53.87
57086;BME280;42964;42.910;23.792;2023-03-20T23:37:58;97542.31;;;11.15;53.75
57086;BME280;42964;42.910;23.792;2023-03-20T23:42:57;97521.63;;;11.04;53.30
57086;BME280;42964;42.910;23.792;2023-03-20T23:47:56;97536.31;;;11.07;53.84
57086;BME280;42964;42.910;23.792;2023-03-20T23:52:54;97533.75;;;11.03;54.16
57086;BME280;42964;42.910;23.792;2023-03-20T23:57:54;97517.28;;;11.06;54.24
